sensor_id;sensor_type;location;lat;lon;timestamp;P1;durP1;ratioP1;P2;durP2;ratioP2
13419;SDS011;6781;58.440;15.470;2023-07-13T00:00:41;8.77;;;4.60;;
13419;SDS011;6781;58.440;15.470;2023-07-13T00:03:08;5.07;;;4.03;;
13419;SDS011;6781;58.440;15.470;2023-07-13T00:05:38;6.55;;;3.97;;
13419;SDS011;6781;58.440;15.470;2023-07-13T00:08:06;8.18;;;4.70;;
13419;SDS011;6781;58.440;15.470;2023-07-13T00:10:35;5.53;;;4.20;;
13419;SDS011;6781;58.440;15.470;2023-07-13T00:13:06;7.38;;;4.38;;
13419;SDS011;6781;58.440;15.470;2023-07-13T00:15:33;4.70;;;3.78;;
13419;SDS011;6781;58.440;15.470;2023-07-13T00:18:01;5.30;;;4.40;;
13419;SDS011;6781;58.440;15.470;2023-07-13T00:20:28;7.70;;;4.40;;
13419;SDS011;6781;58.440;15.470;2023-07-13T00:22:55;6.93;;;4.32;;
13419;SDS011;6781;58.440;15.470;2023-07-13T00:25:23;7.57;;;4.07;;
13419;SDS011;6781;58.440;15.470;2023-07-13T00:27:52;6.63;;;4.30;;
13419;SDS011;6781;58.440;15.470;2023-07-13T00:30:20;6.47;;;3.92;;
13419;SDS011;6781;58.440;15.470;2023-07-13T00:32:47;6.38;;;3.67;;
13419;SDS011;6781;58.440;15.470;2023-07-13T00:35:15;5.45;;;3.63;;
13419;SDS011;6781;58.440;15.470;2023-07-13T00:37:42;6.95;;;4.00;;
13419;SDS011;6781;58.440;15.470;2023-07-13T00:40:10;6.72;;;3.60;;
13419;SDS011;6781;58.440;15.470;2023-07-13T00:42:38;4.85;;;3.72;;
13419;SDS011;6781;58.440;15.470;2023-07-13T00:46:02;4.07;;;3.75;;
13419;SDS011;6781;58.440;15.470;2023-07-13T00:48:13;3.95;;;3.65;;
13419;SDS011;6781;58.440;15.470;2023-07-13T00:50:43;5.00;;;3.90;;
13419;SDS011;6781;58.440;15.470;2023-07-13T00:53:13;6.28;;;4.20;;
13419;SDS011;6781;58.440;15.470;2023-07-13T00:55:41;4.63;;;3.65;;
13419;SDS011;6781;58.440;15.470;2023-07-13T00:58:08;5.05;;;3.38;;
13419;SDS011;6781;58.440;15.470;2023-07-13T01:00:37;5.38;;;4.03;;
13419;SDS011;6781;58.440;15.470;2023-07-13T01:03:06;4.57;;;4.18;;
13419;SDS011;6781;58.440;15.470;2023-07-13T01:05:34;4.75;;;4.32;;
13419;SDS011;6781;58.440;15.470;2023-07-13T01:08:02;4.85;;;3.67;;
13419;SDS011;6781;58.440;15.470;2023-07-13T01:10:30;5.53;;;3.67;;
13419;SDS011;6781;58.440;15.470;2023-07-13T01:13:04;7.05;;;4.30;;
13419;SDS011;6781;58.440;15.470;2023-07-13T01:15:34;4.30;;;3.90;;
13419;SDS011;6781;58.440;15.470;2023-07-13T01:18:08;4.25;;;3.53;;
13419;SDS011;6781;58.440;15.470;2023-07-13T01:20:38;6.55;;;4.03;;
13419;SDS011;6781;58.440;15.470;2023-07-13T01:23:07;5.25;;;4.20;;
13419;SDS011;6781;58.440;15.470;2023-07-13T01:25:38;4.47;;;4.07;;
13419;SDS011;6781;58.440;15.470;2023-07-13T01:28:08;4.43;;;4.03;;
13419;SDS011;6781;58.440;15.470;2023-07-13T01:30:35;8.75;;;4.05;;
13419;SDS011;6781;58.440;15.470;2023-07-13T01:33:05;5.10;;;4.18;;
13419;SDS011;6781;58.440;15.470;2023-07-13T01:35:32;5.00;;;3.63;;
13419;SDS011;6781;58.440;15.470;2023-07-13T01:37:59;6.13;;;3.72;;
13419;SDS011;6781;58.440;15.470;2023-07-13T01:40:28;4.38;;;3.40;;
13419;SDS011;6781;58.440;15.470;2023-07-13T01:42:57;4.68;;;4.13;;
13419;SDS011;6781;58.440;15.470;2023-07-13T01:45:24;5.43;;;3.55;;
13419;SDS011;6781;58.440;15.470;2023-07-13T01:47:51;4.50;;;3.80;;
13419;SDS011;6781;58.440;15.470;2023-07-13T01:50:19;4.10;;;3.70;;
13419;SDS011;6781;58.440;15.470;2023-07-13T01:52:46;4.00;;;3.70;;
13419;SDS011;6781;58.440;15.470;2023-07-13T01:55:13;4.30;;;3.90;;
13419;SDS011;6781;58.440;15.470;2023-07-13T01:57:42;4.28;;;3.08;;
13419;SDS011;6781;58.440;15.470;2023-07-13T02:00:09;6.60;;;3.85;;
13419;SDS011;6781;58.440;15.470;2023-07-13T02:02:38;4.93;;;3.70;;
13419;SDS011;6781;58.440;15.470;2023-07-13T02:07:40;6.95;;;3.75;;
13419;SDS011;6781;58.440;15.470;2023-07-13T02:10:09;6.63;;;3.67;;
13419;SDS011;6781;58.440;15.470;2023-07-13T02:12:37;3.88;;;3.40;;
13419;SDS011;6781;58.440;15.470;2023-07-13T02:15:09;6.43;;;4.22;;
13419;SDS011;6781;58.440;15.470;2023-07-13T02:17:37;4.15;;;3.45;;
13419;SDS011;6781;58.440;15.470;2023-07-13T02:20:04;5.28;;;3.40;;
13419;SDS011;6781;58.440;15.470;2023-07-13T02:22:33;6.30;;;3.60;;
13419;SDS011;6781;58.440;15.470;2023-07-13T02:25:00;3.88;;;3.45;;
13419;SDS011;6781;58.440;15.470;2023-07-13T02:27:27;6.10;;;3.83;;
13419;SDS011;6781;58.440;15.470;2023-07-13T02:29:55;3.80;;;3.50;;
13419;SDS011;6781;58.440;15.470;2023-07-13T02:32:23;3.35;;;3.05;;
13419;SDS011;6781;58.440;15.470;2023-07-13T02:34:51;3.47;;;3.00;;
13419;SDS011;6781;58.440;15.470;2023-07-13T02:37:18;4.60;;;3.38;;
13419;SDS011;6781;58.440;15.470;2023-07-13T02:39:46;5.07;;;2.97;;
13419;SDS011;6781;58.440;15.470;2023-07-13T02:42:14;4.38;;;3.10;;
13419;SDS011;6781;58.440;15.470;2023-07-13T02:44:41;3.38;;;3.08;;
13419;SDS011;6781;58.440;15.470;2023-07-13T02:47:08;3.80;;;3.20;;
13419;SDS011;6781;58.440;15.470;2023-07-13T02:49:37;5.00;;;3.90;;
13419;SDS011;6781;58.440;15.470;2023-07-13T02:52:04;4.40;;;3.30;;
13419;SDS011;6781;58.440;15.470;2023-07-13T02:54:32;5.03;;;3.45;;
13419;SDS011;6781;58.440;15.470;2023-07-13T02:56:59;5.45;;;3.20;;
13419;SDS011;6781;58.440;15.470;2023-07-13T02:59:26;5.05;;;3.70;;
13419;SDS011;6781;58.440;15.470;2023-07-13T03:01:53;4.15;;;3.50;;
13419;SDS011;6781;58.440;15.470;2023-07-13T03:04:20;5.57;;;3.70;;
13419;SDS011;6781;58.440;15.470;2023-07-13T03:06:49;3.90;;;3.33;;
13419;SDS011;6781;58.440;15.470;2023-07-13T03:09:16;3.83;;;3.22;;
13419;SDS011;6781;58.440;15.470;2023-07-13T03:11:43;4.03;;;3.47;;
13419;SDS011;6781;58.440;15.470;2023-07-13T03:14:10;4.50;;;4.10;;
13419;SDS011;6781;58.440;15.470;2023-07-13T03:16:37;4.13;;;3.65;;
13419;SDS011;6781;58.440;15.470;2023-07-13T03:19:05;4.57;;;3.33;;
13419;SDS011;6781;58.440;15.470;2023-07-13T03:21:32;4.00;;;3.60;;
13419;SDS011;6781;58.440;15.470;2023-07-13T03:24:00;5.95;;;3.60;;
13419;SDS011;6781;58.440;15.470;2023-07-13T03:26:27;4.28;;;3.88;;
13419;SDS011;6781;58.440;15.470;2023-07-13T03:28:55;4.53;;;3.72;;
13419;SDS011;6781;58.440;15.470;2023-07-13T03:31:26;7.10;;;3.83;;
13419;SDS011;6781;58.440;15.470;2023-07-13T03:33:54;7.72;;;3.65;;
13419;SDS011;6781;58.440;15.470;2023-07-13T03:36:23;3.97;;;3.30;;
13419;SDS011;6781;58.440;15.470;2023-07-13T03:38:53;3.97;;;3.67;;
13419;SDS011;6781;58.440;15.470;2023-07-13T03:41:23;3.80;;;3.50;;
13419;SDS011;6781;58.440;15.470;2023-07-13T03:43:51;4.38;;;3.90;;
13419;SDS011;6781;58.440;15.470;2023-07-13T03:46:19;6.72;;;3.95;;
13419;SDS011;6781;58.440;15.470;2023-07-13T03:48:47;6.20;;;3.40;;
13419;SDS011;6781;58.440;15.470;2023-07-13T03:51:15;3.50;;;3.05;;
13419;SDS011;6781;58.440;15.470;2023-07-13T03:53:43;3.70;;;3.30;;
13419;SDS011;6781;58.440;15.470;2023-07-13T03:56:12;5.65;;;3.33;;
13419;SDS011;6781;58.440;15.470;2023-07-13T03:58:42;4.28;;;3.33;;
13419;SDS011;6781;58.440;15.470;2023-07-13T04:01:10;3.78;;;3.42;;
13419;SDS011;6781;58.440;15.470;2023-07-13T04:03:39;5.05;;;3.22;;
13419;SDS011;6781;58.440;15.470;2023-07-13T04:06:07;3.72;;;2.90;;
13419;SDS011;6781;58.440;15.470;2023-07-13T04:08:40;5.10;;;3.25;;
13419;SDS011;6781;58.440;15.470;2023-07-13T04:11:07;6.50;;;3.25;;
13419;SDS011;6781;58.440;15.470;2023-07-13T04:13:34;4.93;;;3.22;;
13419;SDS011;6781;58.440;15.470;2023-07-13T04:16:03;5.60;;;3.22;;
13419;SDS011;6781;58.440;15.470;2023-07-13T04:18:30;4.75;;;3.10;;
13419;SDS011;6781;58.440;15.470;2023-07-13T04:20:58;4.28;;;3.25;;
13419;SDS011;6781;58.440;15.470;2023-07-13T04:23:26;4.25;;;3.30;;
13419;SDS011;6781;58.440;15.470;2023-07-13T04:25:53;8.30;;;3.10;;
13419;SDS011;6781;58.440;15.470;2023-07-13T04:28:20;4.20;;;3.03;;
13419;SDS011;6781;58.440;15.470;2023-07-13T04:30:48;6.32;;;3.38;;
13419;SDS011;6781;58.440;15.470;2023-07-13T04:33:17;4.68;;;3.08;;
13419;SDS011;6781;58.440;15.470;2023-07-13T04:35:47;5.15;;;3.55;;
13419;SDS011;6781;58.440;15.470;2023-07-13T04:38:15;3.78;;;3.15;;
13419;SDS011;6781;58.440;15.470;2023-07-13T04:40:42;4.22;;;3.50;;
13419;SDS011;6781;58.440;15.470;2023-07-13T04:43:11;5.90;;;3.25;;
13419;SDS011;6781;58.440;15.470;2023-07-13T04:45:38;6.03;;;3.60;;
13419;SDS011;6781;58.440;15.470;2023-07-13T04:48:05;4.90;;;3.35;;
13419;SDS011;6781;58.440;15.470;2023-07-13T04:50:34;3.55;;;2.72;;
13419;SDS011;6781;58.440;15.470;2023-07-13T04:53:03;7.20;;;3.50;;
13419;SDS011;6781;58.440;15.470;2023-07-13T04:55:30;8.63;;;3.53;;
13419;SDS011;6781;58.440;15.470;2023-07-13T04:57:58;6.18;;;3.13;;
13419;SDS011;6781;58.440;15.470;2023-07-13T05:00:25;4.47;;;3.55;;
13419;SDS011;6781;58.440;15.470;2023-07-13T05:02:54;7.35;;;3.63;;
13419;SDS011;6781;58.440;15.470;2023-07-13T05:05:22;5.70;;;3.08;;
13419;SDS011;6781;58.440;15.470;2023-07-13T05:07:51;4.78;;;2.83;;
13419;SDS011;6781;58.440;15.470;2023-07-13T05:10:18;7.10;;;3.30;;
13419;SDS011;6781;58.440;15.470;2023-07-13T05:12:45;5.13;;;2.85;;
13419;SDS011;6781;58.440;15.470;2023-07-13T05:15:13;3.97;;;3.22;;
13419;SDS011;6781;58.440;15.470;2023-07-13T05:17:40;4.40;;;3.03;;
13419;SDS011;6781;58.440;15.470;2023-07-13T05:20:07;8.10;;;3.30;;
13419;SDS011;6781;58.440;15.470;2023-07-13T05:22:36;7.03;;;3.40;;
13419;SDS011;6781;58.440;15.470;2023-07-13T05:25:05;4.90;;;3.30;;
13419;SDS011;6781;58.440;15.470;2023-07-13T05:27:32;6.30;;;3.25;;
13419;SDS011;6781;58.440;15.470;2023-07-13T05:30:00;5.38;;;3.25;;
13419;SDS011;6781;58.440;15.470;2023-07-13T05:32:29;5.55;;;2.80;;
13419;SDS011;6781;58.440;15.470;2023-07-13T05:34:56;6.20;;;2.95;;
13419;SDS011;6781;58.440;15.470;2023-07-13T05:37:23;5.25;;;2.80;;
13419;SDS011;6781;58.440;15.470;2023-07-13T05:39:50;5.65;;;2.78;;
13419;SDS011;6781;58.440;15.470;2023-07-13T05:42:19;5.65;;;3.40;;
13419;SDS011;6781;58.440;15.470;2023-07-13T05:44:46;6.10;;;2.65;;
13419;SDS011;6781;58.440;15.470;2023-07-13T05:47:13;4.53;;;3.05;;
13419;SDS011;6781;58.440;15.470;2023-07-13T05:49:40;4.50;;;3.00;;
13419;SDS011;6781;58.440;15.470;2023-07-13T05:52:08;6.65;;;2.65;;
13419;SDS011;6781;58.440;15.470;2023-07-13T05:54:35;4.85;;;2.92;;
13419;SDS011;6781;58.440;15.470;2023-07-13T05:57:02;12.82;;;3.42;;
13419;SDS011;6781;58.440;15.470;2023-07-13T05:59:31;6.53;;;2.70;;
13419;SDS011;6781;58.440;15.470;2023-07-13T06:01:58;3.45;;;2.47;;
13419;SDS011;6781;58.440;15.470;2023-07-13T06:04:25;6.05;;;2.88;;
13419;SDS011;6781;58.440;15.470;2023-07-13T06:06:52;3.42;;;2.72;;
13419;SDS011;6781;58.440;15.470;2023-07-13T06:09:19;7.05;;;2.88;;
13419;SDS011;6781;58.440;15.470;2023-07-13T06:11:46;3.75;;;2.70;;
13419;SDS011;6781;58.440;15.470;2023-07-13T06:14:13;6.32;;;3.20;;
13419;SDS011;6781;58.440;15.470;2023-07-13T06:16:42;6.70;;;3.03;;
13419;SDS011;6781;58.440;15.470;2023-07-13T06:19:09;5.68;;;2.58;;
13419;SDS011;6781;58.440;15.470;2023-07-13T06:21:36;7.07;;;3.00;;
13419;SDS011;6781;58.440;15.470;2023-07-13T06:24:03;5.68;;;2.40;;
13419;SDS011;6781;58.440;15.470;2023-07-13T06:26:31;6.82;;;2.90;;
13419;SDS011;6781;58.440;15.470;2023-07-13T06:28:58;4.50;;;2.38;;
13419;SDS011;6781;58.440;15.470;2023-07-13T06:31:25;4.25;;;2.25;;
13419;SDS011;6781;58.440;15.470;2023-07-13T06:33:54;7.05;;;2.47;;
13419;SDS011;6781;58.440;15.470;2023-07-13T06:36:21;4.13;;;2.15;;
13419;SDS011;6781;58.440;15.470;2023-07-13T06:38:48;2.97;;;1.88;;
13419;SDS011;6781;58.440;15.470;2023-07-13T06:41:15;2.90;;;2.00;;
13419;SDS011;6781;58.440;15.470;2023-07-13T06:43:42;6.20;;;2.15;;
13419;SDS011;6781;58.440;15.470;2023-07-13T06:46:09;8.52;;;2.00;;
13419;SDS011;6781;58.440;15.470;2023-07-13T06:48:36;3.50;;;1.95;;
13419;SDS011;6781;58.440;15.470;2023-07-13T06:51:05;2.85;;;1.98;;
13419;SDS011;6781;58.440;15.470;2023-07-13T06:53:32;2.78;;;1.75;;
13419;SDS011;6781;58.440;15.470;2023-07-13T06:55:59;7.90;;;2.08;;
13419;SDS011;6781;58.440;15.470;2023-07-13T06:58:26;4.60;;;1.98;;
13419;SDS011;6781;58.440;15.470;2023-07-13T07:00:53;3.88;;;1.85;;
13419;SDS011;6781;58.440;15.470;2023-07-13T07:03:21;2.15;;;1.77;;
13419;SDS011;6781;58.440;15.470;2023-07-13T07:05:48;5.00;;;2.00;;
13419;SDS011;6781;58.440;15.470;2023-07-13T07:08:17;3.30;;;1.77;;
13419;SDS011;6781;58.440;15.470;2023-07-13T07:10:44;2.42;;;1.52;;
13419;SDS011;6781;58.440;15.470;2023-07-13T07:13:11;2.58;;;1.80;;
13419;SDS011;6781;58.440;15.470;2023-07-13T07:15:39;2.53;;;1.52;;
13419;SDS011;6781;58.440;15.470;2023-07-13T07:18:06;3.67;;;1.55;;
13419;SDS011;6781;58.440;15.470;2023-07-13T07:20:33;3.83;;;1.50;;
13419;SDS011;6781;58.440;15.470;2023-07-13T07:23:00;5.30;;;1.98;;
13419;SDS011;6781;58.440;15.470;2023-07-13T07:25:29;3.90;;;1.40;;
13419;SDS011;6781;58.440;15.470;2023-07-13T07:27:59;5.03;;;1.90;;
13419;SDS011;6781;58.440;15.470;2023-07-13T07:30:26;2.75;;;1.40;;
13419;SDS011;6781;58.440;15.470;2023-07-13T07:32:53;3.53;;;1.30;;
13419;SDS011;6781;58.440;15.470;2023-07-13T07:35:20;2.72;;;1.42;;
13419;SDS011;6781;58.440;15.470;2023-07-13T07:37:50;4.53;;;1.63;;
13419;SDS011;6781;58.440;15.470;2023-07-13T07:40:17;2.92;;;1.25;;
13419;SDS011;6781;58.440;15.470;2023-07-13T07:42:46;2.85;;;1.50;;
13419;SDS011;6781;58.440;15.470;2023-07-13T07:45:14;5.25;;;1.90;;
13419;SDS011;6781;58.440;15.470;2023-07-13T07:47:41;2.42;;;1.50;;
13419;SDS011;6781;58.440;15.470;2023-07-13T07:50:09;5.80;;;1.33;;
13419;SDS011;6781;58.440;15.470;2023-07-13T07:52:36;7.10;;;1.50;;
13419;SDS011;6781;58.440;15.470;2023-07-13T07:55:04;4.20;;;1.45;;
13419;SDS011;6781;58.440;15.470;2023-07-13T07:57:33;3.97;;;1.30;;
13419;SDS011;6781;58.440;15.470;2023-07-13T08:00:02;3.40;;;1.20;;
13419;SDS011;6781;58.440;15.470;2023-07-13T08:02:29;4.15;;;1.30;;
13419;SDS011;6781;58.440;15.470;2023-07-13T08:04:57;3.28;;;1.13;;
13419;SDS011;6781;58.440;15.470;2023-07-13T08:07:24;2.65;;;1.40;;
13419;SDS011;6781;58.440;15.470;2023-07-13T08:09:51;4.13;;;1.40;;
13419;SDS011;6781;58.440;15.470;2023-07-13T08:12:19;4.70;;;1.60;;
13419;SDS011;6781;58.440;15.470;2023-07-13T08:14:49;5.20;;;1.77;;
13419;SDS011;6781;58.440;15.470;2023-07-13T08:17:20;5.72;;;1.90;;
13419;SDS011;6781;58.440;15.470;2023-07-13T08:19:47;4.55;;;1.67;;
13419;SDS011;6781;58.440;15.470;2023-07-13T08:22:14;6.45;;;1.38;;
13419;SDS011;6781;58.440;15.470;2023-07-13T08:24:41;2.72;;;1.35;;
13419;SDS011;6781;58.440;15.470;2023-07-13T08:27:09;2.95;;;1.25;;
13419;SDS011;6781;58.440;15.470;2023-07-13T08:29:37;2.00;;;1.02;;
13419;SDS011;6781;58.440;15.470;2023-07-13T08:32:05;1.92;;;1.42;;
13419;SDS011;6781;58.440;15.470;2023-07-13T08:34:35;3.15;;;1.20;;
13419;SDS011;6781;58.440;15.470;2023-07-13T08:37:06;4.05;;;1.30;;
13419;SDS011;6781;58.440;15.470;2023-07-13T08:39:33;3.65;;;1.10;;
13419;SDS011;6781;58.440;15.470;2023-07-13T08:42:01;2.60;;;1.50;;
13419;SDS011;6781;58.440;15.470;2023-07-13T08:44:44;2.53;;;1.40;;
13419;SDS011;6781;58.440;15.470;2023-07-13T08:47:21;1.95;;;1.10;;
13419;SDS011;6781;58.440;15.470;2023-07-13T08:49:53;1.48;;;1.15;;
13419;SDS011;6781;58.440;15.470;2023-07-13T08:52:25;3.70;;;1.52;;
13419;SDS011;6781;58.440;15.470;2023-07-13T08:54:58;2.15;;;1.30;;
13419;SDS011;6781;58.440;15.470;2023-07-13T08:57:32;1.92;;;1.02;;
13419;SDS011;6781;58.440;15.470;2023-07-13T09:00:01;1.98;;;1.05;;
13419;SDS011;6781;58.440;15.470;2023-07-13T09:02:34;0.80;;;0.73;;
13419;SDS011;6781;58.440;15.470;2023-07-13T09:05:12;2.58;;;1.30;;
13419;SDS011;6781;58.440;15.470;2023-07-13T09:07:45;3.95;;;0.90;;
13419;SDS011;6781;58.440;15.470;2023-07-13T09:10:29;2.35;;;0.95;;
13419;SDS011;6781;58.440;15.470;2023-07-13T09:13:01;2.55;;;1.13;;
13419;SDS011;6781;58.440;15.470;2023-07-13T09:15:40;2.28;;;1.20;;
13419;SDS011;6781;58.440;15.470;2023-07-13T09:18:10;2.47;;;1.35;;
13419;SDS011;6781;58.440;15.470;2023-07-13T09:20:47;3.08;;;1.23;;
13419;SDS011;6781;58.440;15.470;2023-07-13T09:23:17;1.45;;;0.90;;
13419;SDS011;6781;58.440;15.470;2023-07-13T09:25:47;1.83;;;1.10;;
13419;SDS011;6781;58.440;15.470;2023-07-13T09:28:21;2.33;;;1.05;;
13419;SDS011;6781;58.440;15.470;2023-07-13T09:30:51;4.15;;;1.38;;
13419;SDS011;6781;58.440;15.470;2023-07-13T09:33:23;3.17;;;1.13;;
13419;SDS011;6781;58.440;15.470;2023-07-13T09:35:51;2.70;;;1.30;;
13419;SDS011;6781;58.440;15.470;2023-07-13T09:38:19;2.92;;;1.02;;
13419;SDS011;6781;58.440;15.470;2023-07-13T09:40:55;2.40;;;1.13;;
13419;SDS011;6781;58.440;15.470;2023-07-13T09:43:29;4.53;;;1.60;;
13419;SDS011;6781;58.440;15.470;2023-07-13T09:45:56;2.42;;;1.08;;
13419;SDS011;6781;58.440;15.470;2023-07-13T09:48:25;2.78;;;1.35;;
13419;SDS011;6781;58.440;15.470;2023-07-13T09:51:06;4.55;;;1.40;;
13419;SDS011;6781;58.440;15.470;2023-07-13T09:53:41;5.13;;;1.33;;
13419;SDS011;6781;58.440;15.470;2023-07-13T09:56:18;2.80;;;1.10;;
13419;SDS011;6781;58.440;15.470;2023-07-13T09:58:47;1.73;;;0.98;;
13419;SDS011;6781;58.440;15.470;2023-07-13T10:01:14;1.65;;;0.98;;
13419;SDS011;6781;58.440;15.470;2023-07-13T10:03:51;1.45;;;1.00;;
13419;SDS011;6781;58.440;15.470;2023-07-13T10:06:21;1.88;;;1.13;;
13419;SDS011;6781;58.440;15.470;2023-07-13T10:08:49;2.05;;;1.13;;
13419;SDS011;6781;58.440;15.470;2023-07-13T10:11:18;3.42;;;1.20;;
13419;SDS011;6781;58.440;15.470;2023-07-13T10:13:50;2.60;;;1.27;;
13419;SDS011;6781;58.440;15.470;2023-07-13T10:16:20;3.33;;;1.20;;
13419;SDS011;6781;58.440;15.470;2023-07-13T10:18:50;2.55;;;0.90;;
13419;SDS011;6781;58.440;15.470;2023-07-13T10:21:22;3.80;;;1.63;;
13419;SDS011;6781;58.440;15.470;2023-07-13T10:23:54;2.55;;;1.30;;
13419;SDS011;6781;58.440;15.470;2023-07-13T10:26:25;4.82;;;1.27;;
13419;SDS011;6781;58.440;15.470;2023-07-13T10:28:57;2.92;;;1.27;;
13419;SDS011;6781;58.440;15.470;2023-07-13T10:31:29;2.33;;;1.23;;
13419;SDS011;6781;58.440;15.470;2023-07-13T10:33:57;2.33;;;1.05;;
13419;SDS011;6781;58.440;15.470;2023-07-13T10:36:31;2.40;;;1.20;;
13419;SDS011;6781;58.440;15.470;2023-07-13T10:39:04;5.00;;;1.17;;
13419;SDS011;6781;58.440;15.470;2023-07-13T10:41:33;2.80;;;0.90;;
13419;SDS011;6781;58.440;15.470;2023-07-13T10:44:04;3.03;;;1.10;;
13419;SDS011;6781;58.440;15.470;2023-07-13T10:46:42;4.03;;;1.30;;
13419;SDS011;6781;58.440;15.470;2023-07-13T10:49:10;1.33;;;1.02;;
13419;SDS011;6781;58.440;15.470;2023-07-13T10:51:40;2.30;;;1.20;;
13419;SDS011;6781;58.440;15.470;2023-07-13T10:54:11;2.28;;;0.93;;
13419;SDS011;6781;58.440;15.470;2023-07-13T10:56:43;2.67;;;1.05;;
13419;SDS011;6781;58.440;15.470;2023-07-13T10:59:13;2.60;;;1.27;;
13419;SDS011;6781;58.440;15.470;2023-07-13T11:01:50;2.47;;;1.20;;
13419;SDS011;6781;58.440;15.470;2023-07-13T11:04:21;1.63;;;1.00;;
13419;SDS011;6781;58.440;15.470;2023-07-13T11:06:52;1.30;;;0.95;;
13419;SDS011;6781;58.440;15.470;2023-07-13T11:09:36;2.38;;;1.23;;
13419;SDS011;6781;58.440;15.470;2023-07-13T11:12:09;2.38;;;1.38;;
13419;SDS011;6781;58.440;15.470;2023-07-13T11:15:06;1.88;;;1.20;;
13419;SDS011;6781;58.440;15.470;2023-07-13T11:17:46;2.25;;;1.10;;
13419;SDS011;6781;58.440;15.470;2023-07-13T11:20:22;5.07;;;1.38;;
13419;SDS011;6781;58.440;15.470;2023-07-13T11:23:08;2.13;;;1.00;;
13419;SDS011;6781;58.440;15.470;2023-07-13T11:25:45;1.42;;;1.15;;
13419;SDS011;6781;58.440;15.470;2023-07-13T11:28:15;1.55;;;1.05;;
13419;SDS011;6781;58.440;15.470;2023-07-13T11:30:45;1.98;;;1.10;;
13419;SDS011;6781;58.440;15.470;2023-07-13T11:33:16;1.35;;;1.00;;
13419;SDS011;6781;58.440;15.470;2023-07-13T11:35:47;2.28;;;1.10;;
13419;SDS011;6781;58.440;15.470;2023-07-13T11:38:22;1.15;;;1.10;;
13419;SDS011;6781;58.440;15.470;2023-07-13T11:40:54;2.08;;;1.08;;
13419;SDS011;6781;58.440;15.470;2023-07-13T11:43:24;2.30;;;0.80;;
13419;SDS011;6781;58.440;15.470;2023-07-13T11:45:51;2.35;;;0.95;;
13419;SDS011;6781;58.440;15.470;2023-07-13T11:48:19;1.33;;;0.80;;
13419;SDS011;6781;58.440;15.470;2023-07-13T11:50:53;1.98;;;0.82;;
13419;SDS011;6781;58.440;15.470;2023-07-13T11:53:27;2.05;;;1.00;;
13419;SDS011;6781;58.440;15.470;2023-07-13T11:55:56;1.70;;;1.10;;
13419;SDS011;6781;58.440;15.470;2023-07-13T11:58:25;2.50;;;1.00;;
13419;SDS011;6781;58.440;15.470;2023-07-13T12:00:54;4.25;;;1.30;;
13419;SDS011;6781;58.440;15.470;2023-07-13T12:03:26;1.63;;;1.13;;
13419;SDS011;6781;58.440;15.470;2023-07-13T12:06:01;2.10;;;0.98;;
13419;SDS011;6781;58.440;15.470;2023-07-13T12:08:37;1.67;;;0.95;;
13419;SDS011;6781;58.440;15.470;2023-07-13T12:11:06;3.08;;;1.27;;
13419;SDS011;6781;58.440;15.470;2023-07-13T12:13:41;1.38;;;0.98;;
13419;SDS011;6781;58.440;15.470;2023-07-13T12:16:11;1.02;;;0.80;;
13419;SDS011;6781;58.440;15.470;2023-07-13T12:18:43;1.25;;;1.10;;
13419;SDS011;6781;58.440;15.470;2023-07-13T12:21:14;2.08;;;1.02;;
13419;SDS011;6781;58.440;15.470;2023-07-13T12:23:47;1.98;;;1.02;;
13419;SDS011;6781;58.440;15.470;2023-07-13T12:26:16;2.28;;;1.10;;
13419;SDS011;6781;58.440;15.470;2023-07-13T12:28:46;2.00;;;1.17;;
13419;SDS011;6781;58.440;15.470;2023-07-13T12:31:23;1.67;;;0.90;;
13419;SDS011;6781;58.440;15.470;2023-07-13T12:33:59;2.70;;;1.20;;
13419;SDS011;6781;58.440;15.470;2023-07-13T12:36:29;1.67;;;1.17;;
13419;SDS011;6781;58.440;15.470;2023-07-13T12:39:03;2.42;;;0.95;;
13419;SDS011;6781;58.440;15.470;2023-07-13T12:41:38;2.33;;;1.30;;
13419;SDS011;6781;58.440;15.470;2023-07-13T12:44:08;2.47;;;1.33;;
13419;SDS011;6781;58.440;15.470;2023-07-13T12:46:38;2.53;;;1.20;;
13419;SDS011;6781;58.440;15.470;2023-07-13T12:49:06;5.50;;;1.75;;
13419;SDS011;6781;58.440;15.470;2023-07-13T12:51:34;2.60;;;1.17;;
13419;SDS011;6781;58.440;15.470;2023-07-13T12:54:12;2.47;;;1.00;;
13419;SDS011;6781;58.440;15.470;2023-07-13T12:56:43;2.38;;;1.30;;
13419;SDS011;6781;58.440;15.470;2023-07-13T12:59:14;2.58;;;1.08;;
13419;SDS011;6781;58.440;15.470;2023-07-13T13:01:45;2.13;;;1.10;;
13419;SDS011;6781;58.440;15.470;2023-07-13T13:04:15;2.47;;;0.80;;
13419;SDS011;6781;58.440;15.470;2023-07-13T13:06:47;0.52;;;0.52;;
13419;SDS011;6781;58.440;15.470;2023-07-13T13:09:16;0.77;;;0.70;;
13419;SDS011;6781;58.440;15.470;2023-07-13T13:11:45;1.15;;;0.73;;
13419;SDS011;6781;58.440;15.470;2023-07-13T13:14:13;1.08;;;0.70;;
13419;SDS011;6781;58.440;15.470;2023-07-13T13:16:44;2.78;;;0.80;;
13419;SDS011;6781;58.440;15.470;2023-07-13T13:19:16;1.88;;;0.70;;
13419;SDS011;6781;58.440;15.470;2023-07-13T13:21:47;1.60;;;1.00;;
13419;SDS011;6781;58.440;15.470;2023-07-13T13:24:20;2.67;;;1.15;;
13419;SDS011;6781;58.440;15.470;2023-07-13T13:26:48;1.15;;;0.95;;
13419;SDS011;6781;58.440;15.470;2023-07-13T13:29:17;3.45;;;1.20;;
13419;SDS011;6781;58.440;15.470;2023-07-13T13:31:46;2.47;;;0.98;;
13419;SDS011;6781;58.440;15.470;2023-07-13T13:34:14;2.53;;;1.10;;
13419;SDS011;6781;58.440;15.470;2023-07-13T13:36:43;1.60;;;1.20;;
13419;SDS011;6781;58.440;15.470;2023-07-13T13:39:17;3.85;;;1.10;;
13419;SDS011;6781;58.440;15.470;2023-07-13T13:41:49;4.70;;;1.30;;
13419;SDS011;6781;58.440;15.470;2023-07-13T13:44:17;1.63;;;1.27;;
13419;SDS011;6781;58.440;15.470;2023-07-13T13:46:44;2.08;;;1.02;;
13419;SDS011;6781;58.440;15.470;2023-07-13T13:49:14;1.80;;;0.80;;
13419;SDS011;6781;58.440;15.470;2023-07-13T13:51:43;1.10;;;1.00;;
13419;SDS011;6781;58.440;15.470;2023-07-13T13:54:11;1.73;;;1.08;;
13419;SDS011;6781;58.440;15.470;2023-07-13T13:56:42;1.75;;;1.00;;
13419;SDS011;6781;58.440;15.470;2023-07-13T13:59:10;3.72;;;0.98;;
13419;SDS011;6781;58.440;15.470;2023-07-13T14:01:37;1.42;;;1.02;;
13419;SDS011;6781;58.440;15.470;2023-07-13T14:04:05;1.58;;;1.10;;
13419;SDS011;6781;58.440;15.470;2023-07-13T14:06:33;1.20;;;1.00;;
13419;SDS011;6781;58.440;15.470;2023-07-13T14:09:01;2.53;;;1.10;;
13419;SDS011;6781;58.440;15.470;2023-07-13T14:11:29;8.85;;;1.35;;
13419;SDS011;6781;58.440;15.470;2023-07-13T14:13:59;4.35;;;1.27;;
13419;SDS011;6781;58.440;15.470;2023-07-13T14:16:30;0.70;;;0.70;;
13419;SDS011;6781;58.440;15.470;2023-07-13T14:18:59;2.47;;;1.08;;
13419;SDS011;6781;58.440;15.470;2023-07-13T14:21:28;1.10;;;0.75;;
13419;SDS011;6781;58.440;15.470;2023-07-13T14:23:56;1.58;;;0.85;;
13419;SDS011;6781;58.440;15.470;2023-07-13T14:26:23;3.30;;;0.90;;
13419;SDS011;6781;58.440;15.470;2023-07-13T14:28:54;0.88;;;0.73;;
13419;SDS011;6781;58.440;15.470;2023-07-13T14:31:26;1.88;;;1.10;;
13419;SDS011;6781;58.440;15.470;2023-07-13T14:33:54;0.60;;;0.60;;
13419;SDS011;6781;58.440;15.470;2023-07-13T14:36:25;1.08;;;0.70;;
13419;SDS011;6781;58.440;15.470;2023-07-13T14:38:55;0.75;;;0.70;;
13419;SDS011;6781;58.440;15.470;2023-07-13T14:41:27;2.83;;;0.60;;
13419;SDS011;6781;58.440;15.470;2023-07-13T14:43:54;0.85;;;0.70;;
13419;SDS011;6781;58.440;15.470;2023-07-13T14:46:32;0.68;;;0.68;;
13419;SDS011;6781;58.440;15.470;2023-07-13T14:49:03;0.85;;;0.70;;
13419;SDS011;6781;58.440;15.470;2023-07-13T14:51:32;0.70;;;0.65;;
13419;SDS011;6781;58.440;15.470;2023-07-13T14:54:02;3.00;;;0.88;;
13419;SDS011;6781;58.440;15.470;2023-07-13T14:56:31;1.90;;;0.70;;
13419;SDS011;6781;58.440;15.470;2023-07-13T14:58:58;0.80;;;0.73;;
13419;SDS011;6781;58.440;15.470;2023-07-13T15:01:25;0.95;;;0.90;;
13419;SDS011;6781;58.440;15.470;2023-07-13T15:03:57;0.93;;;0.70;;